createdAt,value
2023-01-21T00:02:09.476Z,31.7
2023-01-21T00:07:32.297Z,31.6
2023-01-21T00:12:54.500Z,31.6
2023-01-21T00:17:45.902Z,31.6
2023-01-21T00:23:08.402Z,31.6
2023-01-21T00:28:30.548Z,31.6
2023-01-21T00:33:55.713Z,31.6
2023-01-21T00:39:18.065Z,31.5
2023-01-21T00:44:40.757Z,31.5
2023-01-21T00:49:32.362Z,31.5
2023-01-21T00:54:39.568Z,31.5
2023-01-21T00:59:48.007Z,31.4
2023-01-21T01:05:10.765Z,31.4
2023-01-21T01:10:34.027Z,31.4
2023-01-21T01:15:41.002Z,31.4
2023-01-21T01:21:04.142Z,31.4
2023-01-21T01:26:26.773Z,31.4
2023-01-21T01:31:50.152Z,31.3
2023-01-21T01:37:12.834Z,31.3
2023-01-21T01:42:20.257Z,31.3
2023-01-21T01:47:43.046Z,31.3
2023-01-21T01:52:50.669Z,31.3
2023-01-21T01:58:13.049Z,31.3
2023-01-21T02:03:36.343Z,31.3
2023-01-21T02:08:59.362Z,31.4
2023-01-21T02:14:21.258Z,31.8
2023-01-21T02:19:44.041Z,32.3
2023-01-21T02:30:17.785Z,33.3
2023-01-21T02:40:48.182Z,34.5
2023-01-21T02:46:11.003Z,35.1
2023-01-21T02:51:34.457Z,35.8
2023-01-21T03:01:49.338Z,37.1
2023-01-21T03:07:11.702Z,37.8
2023-01-21T03:12:18.701Z,38.5
2023-01-21T03:17:41.555Z,39.2
2023-01-21T03:23:04.467Z,39.9
2023-01-21T03:28:26.907Z,40.4
2023-01-21T03:33:50.153Z,40.7
2023-01-21T03:38:57.215Z,40.8
2023-01-21T03:44:04.491Z,40.9
2023-01-21T03:54:34.191Z,40.9
2023-01-21T03:59:56.501Z,40.9
2023-01-21T04:05:04.341Z,40.9
2023-01-21T04:10:11.586Z,40.9
2023-01-21T04:15:38.078Z,40.9
2023-01-21T04:25:56.097Z,40.8
2023-01-21T04:31:18.923Z,40.8
2023-01-21T04:36:41.433Z,40.8
2023-01-21T04:42:03.643Z,40.8
2023-01-21T04:47:26.284Z,40.8
2023-01-21T04:52:48.998Z,40.8
2023-01-21T05:03:04.754Z,40.7
2023-01-21T05:08:27.927Z,40.7
2023-01-21T05:13:50.563Z,40.7
2023-01-21T05:24:20.759Z,40.6
2023-01-21T05:29:43.481Z,40.6
2023-01-21T05:39:58.659Z,40.6
2023-01-21T05:45:23.856Z,40.5
2023-01-21T05:50:46.603Z,40.5
2023-01-21T05:56:24.000Z,40.4
2023-01-21T06:01:31.289Z,40.4
2023-01-21T06:06:38.606Z,40.4
2023-01-21T06:12:01.312Z,40.4
2023-01-21T06:17:24.423Z,40.3
2023-01-21T06:22:32.038Z,40.3
2023-01-21T06:27:39.042Z,40.3
2023-01-21T06:33:02.552Z,40.3
2023-01-21T06:38:10.852Z,40.2
2023-01-21T06:43:34.633Z,40.2
2023-01-21T06:49:07.635Z,40.1
2023-01-21T06:54:15.300Z,40.1
2023-01-21T06:59:37.803Z,40.1
2023-01-21T07:05:00.694Z,40.1
2023-01-21T07:10:08.588Z,40
2023-01-21T07:15:16.542Z,40
2023-01-21T07:25:47.468Z,39.9
2023-01-21T07:31:13.124Z,39.9
2023-01-21T07:36:35.811Z,39.8
2023-01-21T07:41:58.254Z,30.8
2023-01-21T07:47:22.693Z,49.9
2023-01-21T07:52:45.872Z,47.5
2023-01-21T07:58:08.016Z,45.9
2023-01-21T08:03:31.379Z,43.7
2023-01-21T08:08:53.767Z,52.3
2023-01-21T08:14:16.380Z,53.6
2023-01-21T08:19:38.993Z,55.8
2023-01-21T08:25:02.139Z,57.3
2023-01-21T08:30:24.789Z,59.2
2023-01-21T08:35:47.745Z,59.9
2023-01-21T08:41:10.907Z,60.1
2023-01-21T08:46:33.304Z,60.6
2023-01-21T08:51:57.021Z,61.9
2023-01-21T08:57:04.113Z,60.3
2023-01-21T09:02:11.611Z,61.8
2023-01-21T09:07:34.623Z,58.6
2023-01-21T09:12:57.544Z,59.9
2023-01-21T09:18:20.869Z,58.4
2023-01-21T09:23:43.840Z,55.5
2023-01-21T09:29:06.440Z,58.4
2023-01-21T09:33:58.898Z,60.1
2023-01-21T09:39:09.010Z,62.6
2023-01-21T09:44:32.055Z,62.1
2023-01-21T09:49:55.174Z,63.7
2023-01-21T09:55:18.224Z,60.6
2023-01-21T10:00:43.180Z,58.1
2023-01-21T10:06:06.074Z,63
2023-01-21T10:11:29.110Z,64.1
2023-01-21T10:16:52.090Z,65.3
2023-01-21T10:22:15.041Z,65.6
2023-01-21T10:27:40.315Z,64.8
2023-01-21T10:32:47.981Z,60.4
2023-01-21T10:37:57.708Z,64
2023-01-21T10:43:21.340Z,63.3
2023-01-21T10:48:45.519Z,66.1
2023-01-21T10:54:08.613Z,66.4
2023-01-21T10:59:33.265Z,66.9
2023-01-21T11:10:04.301Z,67.6
2023-01-21T11:15:27.863Z,63.8
2023-01-21T11:20:53.953Z,67.5
2023-01-21T11:26:16.110Z,65.7
2023-01-21T11:31:31.115Z,65.7
2023-01-21T11:36:39.175Z,66.1
2023-01-21T11:42:02.537Z,65.3
2023-01-21T11:47:25.327Z,60.6
2023-01-21T11:52:48.623Z,57.3
2023-01-21T11:58:11.271Z,54
2023-01-21T12:03:34.012Z,52.1
2023-01-21T12:08:57.175Z,50.7
2023-01-21T12:14:22.018Z,49.7
2023-01-21T12:19:44.652Z,48.9
2023-01-21T12:25:07.884Z,48.3
2023-01-21T12:30:14.837Z,47.8
2023-01-21T12:35:38.384Z,47.4
2023-01-21T12:41:01.419Z,47.2
2023-01-21T12:46:24.683Z,46.9
2023-01-21T12:51:48.761Z,46.7
2023-01-21T12:57:12.999Z,46.5
2023-01-21T13:02:36.591Z,46.4
2023-01-21T13:07:59.926Z,46.1
2023-01-21T13:13:25.060Z,45.9
2023-01-21T13:18:32.911Z,45.7
2023-01-21T13:23:40.508Z,45.5
2023-01-21T13:29:04.917Z,45.3
2023-01-21T13:34:28.137Z,45.1
2023-01-21T13:39:50.847Z,44.9
2023-01-21T13:45:13.675Z,44.8
2023-01-21T13:50:36.495Z,44.6
2023-01-21T13:55:59.060Z,44.4
2023-01-21T14:01:22.687Z,44.3
2023-01-21T14:06:31.400Z,44.1
2023-01-21T14:11:53.590Z,44
2023-01-21T14:17:17.168Z,43.9
2023-01-21T14:22:24.548Z,43.8
2023-01-21T14:27:48.432Z,43.6
2023-01-21T14:33:11.754Z,43.6
2023-01-21T14:38:34.451Z,43.4
2023-01-21T14:43:59.921Z,43.3
2023-01-21T14:49:23.066Z,43.3
2023-01-21T14:54:45.847Z,43.2
2023-01-21T15:00:20.906Z,43.1
2023-01-21T15:05:45.533Z,43
2023-01-21T15:11:11.284Z,42.9
2023-01-21T15:16:35.420Z,42.9
2023-01-21T15:22:01.745Z,42.8
2023-01-21T15:27:23.580Z,42.7
2023-01-21T15:32:55.464Z,42.6
2023-01-21T15:38:18.699Z,42.5
2023-01-21T15:43:41.418Z,42.4
2023-01-21T15:49:14.853Z,42.4
2023-01-21T15:54:38.212Z,42.3
2023-01-21T16:00:00.645Z,42.3
2023-01-21T16:05:26.370Z,42.1
2023-01-21T16:10:49.363Z,41.9
2023-01-21T16:16:13.126Z,41.9
2023-01-21T16:21:38.303Z,41.8
2023-01-21T16:37:04.998Z,41.5
2023-01-21T16:42:27.690Z,41.4
2023-01-21T16:47:34.901Z,41.4
2023-01-21T16:52:58.026Z,41.3
2023-01-21T16:58:21.602Z,41.3
2023-01-21T17:03:45.176Z,41.2
2023-01-21T17:14:16.369Z,41.1
2023-01-21T17:19:41.605Z,41.1
2023-01-21T17:25:04.952Z,41
2023-01-21T17:35:23.331Z,40.9
2023-01-21T17:40:47.971Z,40.8
2023-01-21T17:46:12.025Z,40.8
2023-01-21T17:51:59.269Z,40.8
2023-01-21T17:57:28.225Z,40.7
2023-01-21T18:02:55.474Z,40.6
2023-01-21T18:08:07.257Z,40.6
2023-01-21T18:13:27.148Z,40.5
2023-01-21T18:18:53.380Z,40.5
2023-01-21T18:24:19.753Z,40.4
2023-01-21T18:29:45.941Z,40.4
2023-01-21T18:34:58.051Z,40.3
2023-01-21T18:40:09.438Z,40.3
2023-01-21T18:45:35.925Z,40.3
2023-01-21T18:51:03.811Z,40.2
2023-01-21T18:56:28.626Z,40.2
2023-01-21T19:02:11.543Z,40.1
2023-01-21T19:07:23.166Z,40.1
2023-01-21T19:12:51.661Z,40
2023-01-21T19:18:22.576Z,39.9
2023-01-21T19:23:54.712Z,39.8
2023-01-21T19:29:27.148Z,39.6
2023-01-21T19:34:58.840Z,39.5
2023-01-21T19:40:15.218Z,39.4
2023-01-21T19:45:56.967Z,39.3
2023-01-21T19:51:31.973Z,39.3
2023-01-21T19:56:46.919Z,39.3
2023-01-21T20:02:22.499Z,39.2
2023-01-21T20:08:02.567Z,39.1
2023-01-21T20:13:17.236Z,39.1
2023-01-21T20:18:44.977Z,39.1
2023-01-21T20:24:30.028Z,39
2023-01-21T20:30:15.864Z,38.9
2023-01-21T20:35:42.431Z,38.9
2023-01-21T20:41:07.504Z,38.8
2023-01-21T20:51:52.657Z,38.7
2023-01-21T20:57:17.605Z,38.6
2023-01-21T21:02:29.471Z,38.6
2023-01-21T21:07:54.498Z,38.6
2023-01-21T21:13:04.985Z,38.5
2023-01-21T21:18:28.584Z,38.5
2023-01-21T21:29:00.901Z,38.4
2023-01-21T21:34:24.769Z,38.4
2023-01-21T21:39:48.553Z,38.4
2023-01-21T21:45:11.698Z,38.3
2023-01-21T21:55:43.166Z,38.2
2023-01-21T22:01:05.542Z,38.2
2023-01-21T22:06:28.816Z,38.1
2023-01-21T22:11:51.521Z,38.1
2023-01-21T22:17:15.130Z,38.1
2023-01-21T22:22:39.303Z,38
2023-01-21T22:28:02.234Z,37.9
2023-01-21T22:33:26.432Z,37.9
2023-01-21T22:38:49.221Z,37.9
2023-01-21T22:44:11.392Z,37.8
2023-01-21T22:49:20.447Z,37.8
2023-01-21T22:54:27.606Z,37.8
2023-01-21T22:59:57.345Z,37.7
2023-01-21T23:05:20.315Z,37.7
2023-01-21T23:10:44.463Z,37.6
2023-01-21T23:20:59.441Z,37.6
2023-01-21T23:26:22.473Z,37.5
2023-01-21T23:36:40.307Z,37.4
2023-01-21T23:42:03.050Z,37.4
2023-01-21T23:47:25.354Z,37.4
2023-01-21T23:52:48.755Z,37.3
2023-01-21T23:58:11.201Z,37.3
